createdAt,value
2024-02-09T00:02:22.075Z,6.95
2024-02-09T00:04:52.126Z,7.72
2024-02-09T00:07:23.015Z,8.52
2024-02-09T00:09:52.047Z,8.18
2024-02-09T00:12:22.439Z,7.68
2024-02-09T00:14:51.304Z,7.47
2024-02-09T00:17:20.494Z,6.68
2024-02-09T00:19:49.427Z,8.25
2024-02-09T00:24:48.454Z,10.00
2024-02-09T00:27:17.804Z,9.07
2024-02-09T00:29:46.631Z,9.43
2024-02-09T00:32:16.226Z,9.18
2024-02-09T00:34:49.171Z,8.75
2024-02-09T00:37:23.170Z,8.02
2024-02-09T00:39:52.308Z,6.72
2024-02-09T00:42:22.219Z,7.32
2024-02-09T00:44:51.833Z,7.32
2024-02-09T00:47:23.721Z,8.45
2024-02-09T00:49:54.927Z,8.70
2024-02-09T00:52:26.583Z,7.00
2024-02-09T00:54:55.296Z,7.82
2024-02-09T00:57:26.416Z,8.50
2024-02-09T00:59:57.997Z,8.88
2024-02-09T01:02:27.632Z,7.47
2024-02-09T01:04:57.836Z,7.65
2024-02-09T01:07:29.231Z,7.50
2024-02-09T01:10:00.065Z,6.47
2024-02-09T01:12:46.883Z,7.75
2024-02-09T01:15:33.039Z,7.25
2024-02-09T01:18:20.107Z,8.27
2024-02-09T01:21:06.010Z,7.78
2024-02-09T01:23:53.932Z,8.55
2024-02-09T01:26:39.983Z,8.25
2024-02-09T01:29:26.715Z,7.00
2024-02-09T01:32:12.896Z,8.05
2024-02-09T01:34:59.238Z,7.53
2024-02-09T01:37:45.161Z,8.25
2024-02-09T01:40:35.790Z,7.78
2024-02-09T01:43:24.198Z,7.22
2024-02-09T01:46:13.392Z,6.97
2024-02-09T01:49:02.746Z,9.27
2024-02-09T01:51:51.480Z,8.45
2024-02-09T01:54:38.102Z,7.97
2024-02-09T01:57:27.890Z,7.43
2024-02-09T02:03:01.808Z,8.75
2024-02-09T02:05:48.433Z,9.38
2024-02-09T02:08:35.050Z,15.75
2024-02-09T02:11:20.690Z,10.55
2024-02-09T02:14:08.649Z,8.60
2024-02-09T02:16:54.071Z,8.18
2024-02-09T02:19:40.413Z,7.47
2024-02-09T02:22:33.201Z,6.80
2024-02-09T02:25:23.722Z,6.15
2024-02-09T02:28:09.914Z,7.70
2024-02-09T02:30:58.609Z,7.28
2024-02-09T02:33:44.823Z,7.28
2024-02-09T02:36:31.393Z,8.10
2024-02-09T02:39:18.252Z,7.22
2024-02-09T02:41:46.056Z,8.77
2024-02-09T02:44:13.506Z,7.47
2024-02-09T02:46:47.124Z,9.20
2024-02-09T02:49:33.656Z,9.38
2024-02-09T02:52:20.815Z,8.88
2024-02-09T02:55:06.665Z,8.82
2024-02-09T02:57:52.830Z,8.88
2024-02-09T03:00:38.852Z,6.97
2024-02-09T03:03:26.804Z,8.10
2024-02-09T03:05:55.450Z,6.60
2024-02-09T03:08:45.673Z,8.40
2024-02-09T03:11:13.257Z,7.82
2024-02-09T03:13:44.172Z,8.32
2024-02-09T03:16:12.974Z,8.88
2024-02-09T03:21:27.171Z,7.07
2024-02-09T03:23:57.891Z,7.05
2024-02-09T03:26:26.391Z,7.32
2024-02-09T03:28:56.800Z,7.85
2024-02-09T03:39:51.073Z,13.48
2024-02-09T03:42:21.967Z,11.63
2024-02-09T03:44:51.118Z,12.18
2024-02-09T03:47:21.333Z,11.43
2024-02-09T03:49:56.476Z,10.00
2024-02-09T03:52:26.476Z,8.90
2024-02-09T03:54:57.746Z,8.60
2024-02-09T03:57:28.563Z,8.90
2024-02-09T03:59:59.629Z,8.80
2024-02-09T04:02:29.516Z,9.23
2024-02-09T04:07:27.952Z,7.32
2024-02-09T04:10:25.025Z,7.82
2024-02-09T04:12:47.213Z,8.80
2024-02-09T04:15:15.807Z,8.23
2024-02-09T04:20:15.665Z,6.47
2024-02-09T04:22:44.759Z,6.10
2024-02-09T04:25:16.737Z,8.05
2024-02-09T04:27:45.865Z,7.05
2024-02-09T04:30:17.329Z,7.38
2024-02-09T04:32:46.452Z,11.35
2024-02-09T04:35:15.957Z,13.07
2024-02-09T04:37:45.550Z,10.38
2024-02-09T04:40:16.194Z,10.52
2024-02-09T04:42:45.006Z,9.25
2024-02-09T04:45:13.670Z,9.95
2024-02-09T04:47:43.038Z,11.55
2024-02-09T04:50:12.893Z,12.15
2024-02-09T04:52:41.946Z,11.30
2024-02-09T04:55:12.440Z,12.10
2024-02-09T04:57:44.407Z,12.52
2024-02-09T05:00:14.315Z,11.05
2024-02-09T05:02:46.936Z,10.88
2024-02-09T05:05:14.759Z,11.73
2024-02-09T05:07:44.241Z,9.60
2024-02-09T05:10:13.966Z,9.50
2024-02-09T05:12:44.510Z,9.52
2024-02-09T05:15:13.748Z,8.30
2024-02-09T05:17:43.041Z,7.22
2024-02-09T05:20:15.236Z,9.50
2024-02-09T05:22:48.333Z,9.02
2024-02-09T05:25:17.249Z,10.05
2024-02-09T05:30:18.838Z,7.85
2024-02-09T05:32:51.044Z,8.50
2024-02-09T05:35:22.150Z,9.20
2024-02-09T05:37:51.188Z,8.88
2024-02-09T05:40:21.263Z,8.48
2024-02-09T05:42:51.998Z,8.60
2024-02-09T05:45:20.703Z,9.88
2024-02-09T05:47:50.256Z,8.70
2024-02-09T05:53:02.629Z,7.47
2024-02-09T05:55:31.258Z,10.18
2024-02-09T05:58:03.846Z,8.57
2024-02-09T06:00:33.031Z,9.60
2024-02-09T06:03:03.949Z,15.18
2024-02-09T06:05:33.791Z,12.88
2024-02-09T06:08:03.273Z,14.07
2024-02-09T06:10:32.116Z,12.23
2024-02-09T06:13:02.755Z,10.65
2024-02-09T06:15:32.937Z,10.05
2024-02-09T06:18:04.197Z,9.85
2024-02-09T06:20:34.493Z,9.90
2024-02-09T06:23:06.279Z,9.13
2024-02-09T06:25:35.363Z,10.43
2024-02-09T06:28:06.372Z,10.88
2024-02-09T06:30:34.849Z,11.73
2024-02-09T06:33:05.074Z,10.55
2024-02-09T06:35:34.945Z,10.90
2024-02-09T06:38:05.176Z,10.13
2024-02-09T06:40:33.973Z,11.63
2024-02-09T06:43:02.963Z,13.05
2024-02-09T06:45:36.925Z,12.73
2024-02-09T06:48:07.233Z,12.68
2024-02-09T06:50:37.957Z,12.70
2024-02-09T06:53:08.448Z,17.48
2024-02-09T06:55:39.109Z,21.02
2024-02-09T06:58:08.551Z,21.73
2024-02-09T07:00:43.028Z,21.15
2024-02-09T07:03:17.301Z,18.67
2024-02-09T07:05:47.211Z,18.13
2024-02-09T07:08:27.993Z,15.90
2024-02-09T07:10:56.875Z,16.45
2024-02-09T07:15:55.843Z,17.60
2024-02-09T07:18:25.058Z,15.95
2024-02-09T07:20:53.543Z,14.90
2024-02-09T07:23:22.383Z,13.55
2024-02-09T07:25:51.090Z,16.48
2024-02-09T07:28:20.143Z,17.92
2024-02-09T07:30:48.705Z,20.95
2024-02-09T07:33:19.853Z,20.10
2024-02-09T07:35:48.481Z,20.17
2024-02-09T07:38:17.762Z,23.05
2024-02-09T07:40:46.432Z,23.83
2024-02-09T07:45:46.794Z,22.50
2024-02-09T07:48:15.868Z,22.35
2024-02-09T07:50:46.080Z,25.38
2024-02-09T07:53:16.995Z,20.92
2024-02-09T07:55:45.535Z,25.75
2024-02-09T07:58:14.293Z,26.52
2024-02-09T08:00:43.116Z,26.92
2024-02-09T08:03:13.302Z,27.02
2024-02-09T08:05:42.457Z,29.25
2024-02-09T08:10:41.684Z,26.50
2024-02-09T08:18:10.446Z,21.67
2024-02-09T08:20:39.100Z,22.17
2024-02-09T08:23:08.259Z,20.10
2024-02-09T08:25:38.416Z,21.70
2024-02-09T08:28:07.657Z,23.15
2024-02-09T08:30:36.663Z,18.75
2024-02-09T08:33:06.256Z,22.02
2024-02-09T08:35:34.942Z,22.17
2024-02-09T08:38:03.768Z,20.05
2024-02-09T08:40:32.337Z,19.33
2024-02-09T08:43:02.973Z,18.40
2024-02-09T08:45:31.735Z,17.55
2024-02-09T08:48:00.539Z,18.35
2024-02-09T08:50:29.257Z,15.80
2024-02-09T08:55:28.391Z,15.90
2024-02-09T08:57:57.307Z,15.85
2024-02-09T09:00:27.369Z,15.82
2024-02-09T09:02:56.536Z,14.52
2024-02-09T09:05:26.004Z,16.38
2024-02-09T09:07:55.212Z,16.65
2024-02-09T09:10:24.038Z,18.33
2024-02-09T09:15:22.041Z,16.67
2024-02-09T09:17:53.158Z,14.18
2024-02-09T09:20:22.038Z,15.23
2024-02-09T09:22:51.180Z,15.43
2024-02-09T09:25:19.792Z,13.63
2024-02-09T09:27:49.550Z,14.40
2024-02-09T09:30:19.097Z,14.18
2024-02-09T09:32:48.024Z,15.68
2024-02-09T09:35:18.255Z,14.38
2024-02-09T09:37:47.482Z,16.50
2024-02-09T09:40:17.851Z,17.65
2024-02-09T09:42:47.118Z,16.73
2024-02-09T09:45:20.251Z,16.27
2024-02-09T09:47:49.453Z,16.88
2024-02-09T09:50:22.191Z,16.38
2024-02-09T09:52:56.665Z,16.38
2024-02-09T09:55:29.205Z,16.77
2024-02-09T09:57:58.808Z,18.52
2024-02-09T10:00:29.144Z,17.52
2024-02-09T10:03:00.603Z,18.08
2024-02-09T10:05:32.393Z,17.52
2024-02-09T10:08:03.049Z,17.35
2024-02-09T10:10:32.365Z,17.27
2024-02-09T10:13:13.242Z,19.15
2024-02-09T10:15:43.411Z,15.07
2024-02-09T10:18:15.075Z,17.30
2024-02-09T10:20:46.620Z,17.00
2024-02-09T10:23:15.985Z,17.17
2024-02-09T10:25:45.301Z,17.90
2024-02-09T10:28:15.303Z,16.60
2024-02-09T10:33:14.715Z,17.55
2024-02-09T10:35:45.227Z,16.15
2024-02-09T10:38:15.133Z,19.55
2024-02-09T10:40:44.542Z,19.20
2024-02-09T10:43:16.515Z,19.00
2024-02-09T10:45:46.168Z,20.48
2024-02-09T10:48:17.657Z,20.77
2024-02-09T10:50:48.569Z,20.02
2024-02-09T10:53:26.166Z,21.80
2024-02-09T10:56:04.594Z,20.50
2024-02-09T10:58:38.521Z,21.27
2024-02-09T11:01:08.504Z,22.15
2024-02-09T11:03:44.298Z,21.70
2024-02-09T11:06:16.119Z,21.60
2024-02-09T11:08:48.612Z,22.05
2024-02-09T11:11:17.405Z,22.23
2024-02-09T11:13:47.078Z,21.20
2024-02-09T11:16:28.017Z,22.52
2024-02-09T11:18:57.242Z,21.08
2024-02-09T11:21:28.409Z,20.20
2024-02-09T11:24:00.048Z,20.92
2024-02-09T11:26:38.335Z,21.48
2024-02-09T11:29:08.267Z,22.70
2024-02-09T11:31:38.636Z,23.08
2024-02-09T11:34:08.503Z,22.48
2024-02-09T11:36:39.054Z,22.80
2024-02-09T11:39:12.081Z,20.65
2024-02-09T11:41:43.580Z,21.63
2024-02-09T11:44:14.032Z,20.33
2024-02-09T11:46:46.311Z,20.83
2024-02-09T11:49:16.462Z,17.30
2024-02-09T11:51:53.373Z,17.65
2024-02-09T11:54:24.234Z,18.15
2024-02-09T11:57:04.501Z,21.10
2024-02-09T11:59:35.990Z,22.13
2024-02-09T12:02:05.238Z,20.48
2024-02-09T12:04:35.069Z,21.42
2024-02-09T12:09:37.902Z,17.95
2024-02-09T12:12:10.224Z,17.02
2024-02-09T12:14:39.962Z,18.52
2024-02-09T12:17:10.564Z,16.73
2024-02-09T12:19:43.679Z,19.33
2024-02-09T12:22:15.649Z,18.48
2024-02-09T12:24:46.855Z,20.27
2024-02-09T12:27:16.788Z,18.92
2024-02-09T12:29:46.542Z,18.88
2024-02-09T12:32:19.479Z,20.52
2024-02-09T12:34:52.727Z,19.27
2024-02-09T12:37:28.363Z,20.83
2024-02-09T12:40:00.639Z,19.98
2024-02-09T12:42:34.528Z,19.52
2024-02-09T12:45:07.541Z,19.30
2024-02-09T12:47:40.455Z,20.27
2024-02-09T12:50:11.521Z,20.13
2024-02-09T12:52:45.666Z,20.23
2024-02-09T12:55:16.897Z,21.83
2024-02-09T12:57:47.712Z,20.33
2024-02-09T13:00:17.602Z,22.08
2024-02-09T13:05:17.676Z,19.80
2024-02-09T13:07:50.084Z,19.08
2024-02-09T13:10:22.550Z,19.23
2024-02-09T13:12:55.343Z,21.25
2024-02-09T13:15:30.469Z,21.13
2024-02-09T13:18:00.104Z,20.60
2024-02-09T13:20:31.226Z,19.55
2024-02-09T13:23:03.435Z,21.48
2024-02-09T13:25:36.046Z,20.63
2024-02-09T13:28:05.741Z,21.48
2024-02-09T13:30:38.561Z,22.02
2024-02-09T13:33:08.792Z,20.48
2024-02-09T13:35:39.423Z,22.23
2024-02-09T13:38:12.857Z,21.35
2024-02-09T13:40:44.320Z,20.83
2024-02-09T13:43:16.145Z,20.73
2024-02-09T13:45:48.332Z,20.95
2024-02-09T13:48:26.430Z,19.98
2024-02-09T13:51:01.211Z,23.20
2024-02-09T13:53:32.008Z,24.58
2024-02-09T13:56:02.700Z,25.23
2024-02-09T13:58:34.478Z,21.92
2024-02-09T14:01:05.309Z,21.00
2024-02-09T14:03:36.555Z,20.38
2024-02-09T14:06:07.998Z,25.10
2024-02-09T14:08:40.409Z,20.70
2024-02-09T14:11:10.313Z,18.73
2024-02-09T14:13:41.764Z,18.95
2024-02-09T14:16:14.571Z,16.95
2024-02-09T14:18:47.841Z,18.83
2024-02-09T14:21:18.436Z,17.52
2024-02-09T14:23:48.968Z,16.80
2024-02-09T14:26:20.949Z,15.70
2024-02-09T14:28:52.902Z,15.77
2024-02-09T14:31:24.517Z,18.27
2024-02-09T14:33:55.349Z,16.45
2024-02-09T14:36:28.915Z,16.65
2024-02-09T14:39:01.785Z,15.82
2024-02-09T14:41:31.512Z,16.05
2024-02-09T14:44:02.306Z,16.13
2024-02-09T14:46:36.089Z,16.80
2024-02-09T14:49:05.368Z,14.82
2024-02-09T14:51:37.524Z,15.27
2024-02-09T14:54:10.804Z,15.02
2024-02-09T14:56:48.660Z,14.48
2024-02-09T14:59:27.589Z,14.65
2024-02-09T15:01:59.038Z,14.75
2024-02-09T15:04:32.493Z,13.77
2024-02-09T15:07:02.738Z,12.85
2024-02-09T15:09:38.590Z,14.95
2024-02-09T15:12:09.411Z,15.02
2024-02-09T15:14:38.850Z,15.35
2024-02-09T15:17:11.171Z,13.65
2024-02-09T15:20:01.042Z,13.18
2024-02-09T15:22:31.510Z,14.95
2024-02-09T15:25:07.882Z,14.68
2024-02-09T15:27:51.219Z,15.25
2024-02-09T15:30:21.651Z,15.20
2024-02-09T15:32:51.558Z,16.10
2024-02-09T15:35:22.489Z,14.75
2024-02-09T15:37:55.973Z,15.43
2024-02-09T15:40:29.093Z,15.15
2024-02-09T15:42:58.625Z,14.43
2024-02-09T15:45:28.969Z,14.70
2024-02-09T15:47:58.532Z,13.95
2024-02-09T15:50:29.352Z,14.68
2024-02-09T15:53:00.605Z,12.63
2024-02-09T15:55:39.527Z,13.38
2024-02-09T15:58:11.208Z,12.68
2024-02-09T16:00:41.786Z,11.93
2024-02-09T16:03:12.900Z,13.30
2024-02-09T16:05:45.469Z,13.55
2024-02-09T16:08:20.343Z,12.63
2024-02-09T16:10:53.072Z,13.13
2024-02-09T16:13:22.459Z,12.93
2024-02-09T16:15:53.385Z,13.32
2024-02-09T16:18:23.701Z,14.77
2024-02-09T16:20:54.243Z,13.70
2024-02-09T16:23:23.661Z,15.60
2024-02-09T16:26:02.455Z,14.60
2024-02-09T16:28:36.903Z,13.13
2024-02-09T16:31:10.407Z,13.02
2024-02-09T16:33:39.948Z,13.05
2024-02-09T16:36:09.914Z,13.35
2024-02-09T16:38:40.304Z,12.63
2024-02-09T16:41:14.112Z,12.43
2024-02-09T16:43:48.151Z,12.57
2024-02-09T16:46:18.223Z,12.35
2024-02-09T16:48:48.670Z,11.27
2024-02-09T16:51:18.918Z,10.60
2024-02-09T16:53:48.436Z,9.65
2024-02-09T16:56:21.640Z,10.10
2024-02-09T16:58:52.392Z,9.73
2024-02-09T17:01:26.699Z,9.18
2024-02-09T17:03:59.288Z,8.55
2024-02-09T17:06:30.277Z,8.98
2024-02-09T17:09:00.827Z,8.52
2024-02-09T17:11:31.561Z,7.03
2024-02-09T17:14:05.683Z,8.95
2024-02-09T17:16:41.898Z,7.97
2024-02-09T17:19:17.330Z,8.07
2024-02-09T17:21:48.092Z,8.43
2024-02-09T17:24:20.020Z,7.18
2024-02-09T17:26:59.486Z,7.43
2024-02-09T17:29:33.515Z,6.80
2024-02-09T17:32:02.575Z,7.45
2024-02-09T17:34:43.296Z,7.25
2024-02-09T17:37:13.509Z,6.97
2024-02-09T17:39:45.483Z,7.93
2024-02-09T17:42:17.263Z,7.93
2024-02-09T17:44:51.332Z,7.55
2024-02-09T17:47:22.645Z,6.22
2024-02-09T17:49:53.735Z,6.95
2024-02-09T17:52:25.993Z,7.30
2024-02-09T17:54:58.800Z,6.45
2024-02-09T17:57:30.717Z,7.00
2024-02-09T18:00:01.043Z,7.38
2024-02-09T18:05:01.106Z,7.15
2024-02-09T18:07:32.602Z,7.90
2024-02-09T18:10:02.438Z,6.95
2024-02-09T18:12:35.002Z,9.45
2024-02-09T18:15:07.001Z,7.35
2024-02-09T18:17:36.101Z,6.93
2024-02-09T18:20:11.933Z,8.27
2024-02-09T18:22:42.519Z,8.65
2024-02-09T18:25:16.967Z,8.27
2024-02-09T18:27:47.776Z,7.85
2024-02-09T18:30:23.801Z,8.95
2024-02-09T18:32:56.885Z,8.05
2024-02-09T18:35:30.787Z,7.28
2024-02-09T18:38:00.801Z,8.10
2024-02-09T18:40:32.454Z,8.30
2024-02-09T18:43:05.719Z,6.50
2024-02-09T18:45:38.026Z,7.18
2024-02-09T18:48:09.182Z,7.50
2024-02-09T18:50:41.076Z,7.47
2024-02-09T18:53:16.597Z,7.72
2024-02-09T18:55:52.115Z,8.38
2024-02-09T18:58:40.484Z,8.52
2024-02-09T19:01:20.104Z,7.70
2024-02-09T19:03:55.297Z,7.78
2024-02-09T19:06:32.442Z,8.68
2024-02-09T19:09:03.221Z,8.80
2024-02-09T19:11:36.547Z,7.70
2024-02-09T19:14:11.284Z,8.30
2024-02-09T19:16:47.962Z,8.07
2024-02-09T19:19:20.776Z,7.25
2024-02-09T19:22:00.757Z,7.53
2024-02-09T19:24:31.584Z,7.63
2024-02-09T19:27:08.902Z,8.48
2024-02-09T19:29:43.787Z,7.85
2024-02-09T19:32:17.348Z,7.53
2024-02-09T19:34:57.111Z,7.72
2024-02-09T19:37:30.960Z,8.32
2024-02-09T19:40:04.914Z,8.20
2024-02-09T19:42:40.577Z,8.80
2024-02-09T19:45:19.760Z,7.40
2024-02-09T19:47:55.376Z,8.80
2024-02-09T19:50:29.332Z,8.85
2024-02-09T19:53:08.450Z,7.30
2024-02-09T19:55:43.895Z,7.95
2024-02-09T19:58:22.515Z,7.65
2024-02-09T20:01:00.581Z,7.70
2024-02-09T20:03:30.410Z,7.65
2024-02-09T20:08:34.713Z,7.25
2024-02-09T20:11:06.487Z,7.75
2024-02-09T20:13:36.935Z,7.55
2024-02-09T20:16:12.094Z,8.10
2024-02-09T20:18:42.851Z,8.20
2024-02-09T20:21:14.742Z,8.57
2024-02-09T20:23:46.230Z,7.68
2024-02-09T20:26:16.664Z,6.85
2024-02-09T20:28:50.123Z,7.75
2024-02-09T20:31:24.027Z,7.50
2024-02-09T20:33:54.682Z,7.80
2024-02-09T20:36:35.031Z,7.25
2024-02-09T20:39:06.432Z,6.47
2024-02-09T20:41:38.130Z,6.32
2024-02-09T20:44:13.598Z,7.15
2024-02-09T20:46:48.115Z,6.47
2024-02-09T20:49:21.059Z,7.55
2024-02-09T20:51:57.166Z,7.55
2024-02-09T20:54:29.037Z,6.97
2024-02-09T20:57:01.805Z,7.45
2024-02-09T20:59:41.625Z,7.53
2024-02-09T21:02:16.226Z,5.68
2024-02-09T21:04:50.718Z,6.75
2024-02-09T21:07:20.596Z,9.25
2024-02-09T21:09:53.914Z,7.80
2024-02-09T21:12:25.169Z,6.88
2024-02-09T21:14:56.219Z,7.00
2024-02-09T21:17:35.893Z,8.18
2024-02-09T21:20:12.617Z,7.57
2024-02-09T21:22:46.004Z,7.13
2024-02-09T21:25:21.066Z,7.88
2024-02-09T21:27:52.817Z,7.80
2024-02-09T21:30:25.747Z,7.65
2024-02-09T21:33:03.196Z,7.75
2024-02-09T21:35:33.076Z,6.68
2024-02-09T21:38:15.647Z,8.27
2024-02-09T21:41:11.372Z,8.15
2024-02-09T21:43:46.081Z,8.40
2024-02-09T21:46:31.022Z,7.18
2024-02-09T21:49:23.628Z,7.05
2024-02-09T21:52:02.519Z,6.88
2024-02-09T21:54:43.913Z,8.63
2024-02-09T21:57:17.441Z,8.07
2024-02-09T21:59:49.761Z,6.97
2024-02-09T22:02:21.690Z,7.38
2024-02-09T22:04:54.395Z,7.35
2024-02-09T22:07:23.673Z,7.45
2024-02-09T22:09:53.182Z,6.85
2024-02-09T22:12:27.599Z,7.45
2024-02-09T22:15:01.323Z,8.55
2024-02-09T22:17:33.621Z,8.98
2024-02-09T22:20:12.997Z,7.40
2024-02-09T22:25:22.575Z,7.97
2024-02-09T22:27:58.464Z,8.60
2024-02-09T22:33:20.462Z,8.23
2024-02-09T22:35:54.582Z,9.07
2024-02-09T22:38:29.203Z,9.25
2024-02-09T22:41:21.806Z,8.32
2024-02-09T22:43:55.274Z,9.75
2024-02-09T22:46:42.367Z,9.02
2024-02-09T22:52:36.712Z,10.50
2024-02-09T22:55:21.399Z,9.38
2024-02-09T22:58:03.461Z,9.88
2024-02-09T23:01:02.562Z,8.32
2024-02-09T23:03:51.046Z,6.95
2024-02-09T23:06:38.656Z,9.68
2024-02-09T23:09:22.229Z,10.85
2024-02-09T23:12:03.633Z,8.70
2024-02-09T23:14:35.148Z,9.98
2024-02-09T23:17:05.787Z,9.85
2024-02-09T23:19:39.167Z,9.10
2024-02-09T23:22:10.100Z,9.68
2024-02-09T23:24:41.606Z,11.20
2024-02-09T23:27:22.280Z,11.52
2024-02-09T23:29:56.144Z,10.38
2024-02-09T23:32:27.894Z,8.80
2024-02-09T23:35:03.231Z,10.27
2024-02-09T23:37:32.399Z,9.80
2024-02-09T23:40:12.289Z,11.07
2024-02-09T23:42:53.224Z,9.60
2024-02-09T23:45:25.831Z,9.43
2024-02-09T23:47:54.813Z,10.95
2024-02-09T23:50:30.035Z,10.10
2024-02-09T23:53:04.717Z,10.98
2024-02-09T23:55:39.648Z,10.75
2024-02-09T23:58:12.489Z,9.88
